sensor_id;sensor_type;location;lat;lon;timestamp;pressure;altitude;pressure_sealevel;temperature
74539;BMP180;66042;51.090;-115.340;2023-02-25T00:01:28;85544.60;;;-11.30
74539;BMP180;66042;51.090;-115.340;2023-02-25T00:03:58;85541.40;;;-11.40
74539;BMP180;66042;51.090;-115.340;2023-02-25T00:06:25;85518.00;;;-11.46
74539;BMP180;66042;51.090;-115.340;2023-02-25T00:08:53;85527.00;;;-11.50
74539;BMP180;66042;51.090;-115.340;2023-02-25T00:11:23;85535.40;;;-11.50
74539;BMP180;66042;51.090;-115.340;2023-02-25T00:13:51;85528.00;;;-11.52
74539;BMP180;66042;51.090;-115.340;2023-02-25T00:16:20;85526.80;;;-11.60
74539;BMP180;66042;51.090;-115.340;2023-02-25T00:18:53;85552.20;;;-11.68
74539;BMP180;66042;51.090;-115.340;2023-02-25T00:21:20;85547.60;;;-11.70
74539;BMP180;66042;51.090;-115.340;2023-02-25T00:23:48;85533.40;;;-11.80
74539;BMP180;66042;51.090;-115.340;2023-02-25T00:26:17;85533.20;;;-11.80
74539;BMP180;66042;51.090;-115.340;2023-02-25T00:28:45;85543.00;;;-11.90
74539;BMP180;66042;51.090;-115.340;2023-02-25T00:31:22;85527.20;;;-11.90
74539;BMP180;66042;51.090;-115.340;2023-02-25T00:33:51;85550.60;;;-12.00
74539;BMP180;66042;51.090;-115.340;2023-02-25T00:36:24;85556.00;;;-12.10
74539;BMP180;66042;51.090;-115.340;2023-02-25T00:38:55;85533.80;;;-12.20
74539;BMP180;66042;51.090;-115.340;2023-02-25T00:41:28;85547.60;;;-12.20
74539;BMP180;66042;51.090;-115.340;2023-02-25T00:44:02;85553.20;;;-12.30
74539;BMP180;66042;51.090;-115.340;2023-02-25T00:46:30;85547.60;;;-12.38
74539;BMP180;66042;51.090;-115.340;2023-02-25T00:48:58;85555.20;;;-12.40
74539;BMP180;66042;51.090;-115.340;2023-02-25T00:51:29;85536.80;;;-12.40
74539;BMP180;66042;51.090;-115.340;2023-02-25T00:53:57;85535.40;;;-12.36
74539;BMP180;66042;51.090;-115.340;2023-02-25T00:56:26;85546.20;;;-12.30
74539;BMP180;66042;51.090;-115.340;2023-02-25T00:58:53;85538.80;;;-12.32
74539;BMP180;66042;51.090;-115.340;2023-02-25T01:01:27;85534.60;;;-12.40
74539;BMP180;66042;51.090;-115.340;2023-02-25T01:03:56;85534.00;;;-12.40
74539;BMP180;66042;51.090;-115.340;2023-02-25T01:06:26;85533.00;;;-12.40
74539;BMP180;66042;51.090;-115.340;2023-02-25T01:08:53;85537.60;;;-12.40
74539;BMP180;66042;51.090;-115.340;2023-02-25T01:11:27;85537.60;;;-12.40
74539;BMP180;66042;51.090;-115.340;2023-02-25T01:14:04;85536.20;;;-12.40
74539;BMP180;66042;51.090;-115.340;2023-02-25T01:16:33;85535.40;;;-12.40
74539;BMP180;66042;51.090;-115.340;2023-02-25T01:19:08;85536.20;;;-12.40
74539;BMP180;66042;51.090;-115.340;2023-02-25T01:21:43;85556.80;;;-12.50
74539;BMP180;66042;51.090;-115.340;2023-02-25T01:24:25;85554.00;;;-12.50
74539;BMP180;66042;51.090;-115.340;2023-02-25T01:26:56;85568.60;;;-12.50
74539;BMP180;66042;51.090;-115.340;2023-02-25T01:29:31;85572.40;;;-12.60
74539;BMP180;66042;51.090;-115.340;2023-02-25T01:32:01;85566.80;;;-12.60
74539;BMP180;66042;51.090;-115.340;2023-02-25T01:34:29;85554.20;;;-12.62
74539;BMP180;66042;51.090;-115.340;2023-02-25T01:36:56;85562.00;;;-12.68
74539;BMP180;66042;51.090;-115.340;2023-02-25T01:39:25;85563.80;;;-12.70
74539;BMP180;66042;51.090;-115.340;2023-02-25T01:41:56;85562.40;;;-12.70
74539;BMP180;66042;51.090;-115.340;2023-02-25T01:44:29;85547.80;;;-12.70
74539;BMP180;66042;51.090;-115.340;2023-02-25T01:46:57;85550.40;;;-12.70
74539;BMP180;66042;51.090;-115.340;2023-02-25T01:49:37;85554.00;;;-12.70
74539;BMP180;66042;51.090;-115.340;2023-02-25T01:52:13;85546.60;;;-12.78
74539;BMP180;66042;51.090;-115.340;2023-02-25T01:54:44;85546.40;;;-12.80
74539;BMP180;66042;51.090;-115.340;2023-02-25T01:57:16;85549.60;;;-12.80
74539;BMP180;66042;51.090;-115.340;2023-02-25T01:59:43;85559.20;;;-12.80
74539;BMP180;66042;51.090;-115.340;2023-02-25T02:02:16;85559.80;;;-12.90
74539;BMP180;66042;51.090;-115.340;2023-02-25T02:04:45;85559.80;;;-12.90
74539;BMP180;66042;51.090;-115.340;2023-02-25T02:07:16;85569.60;;;-12.90
74539;BMP180;66042;51.090;-115.340;2023-02-25T02:09:44;85555.60;;;-12.90
74539;BMP180;66042;51.090;-115.340;2023-02-25T02:12:35;85552.00;;;-12.90
74539;BMP180;66042;51.090;-115.340;2023-02-25T02:15:09;85572.20;;;-12.90
74539;BMP180;66042;51.090;-115.340;2023-02-25T02:17:58;85567.40;;;-12.90
74539;BMP180;66042;51.090;-115.340;2023-02-25T02:20:42;85562.20;;;-12.90
74539;BMP180;66042;51.090;-115.340;2023-02-25T02:26:40;85559.60;;;-12.92
74539;BMP180;66042;51.090;-115.340;2023-02-25T02:29:48;85552.20;;;-12.94
74539;BMP180;66042;51.090;-115.340;2023-02-25T02:32:45;85550.00;;;-12.90
74539;BMP180;66042;51.090;-115.340;2023-02-25T02:38:24;85579.40;;;-12.90
74539;BMP180;66042;51.090;-115.340;2023-02-25T02:41:28;85564.00;;;-12.90
74539;BMP180;66042;51.090;-115.340;2023-02-25T02:47:01;85572.60;;;-12.94
74539;BMP180;66042;51.090;-115.340;2023-02-25T02:49:43;85574.40;;;-13.00
74539;BMP180;66042;51.090;-115.340;2023-02-25T02:52:24;85559.80;;;-13.00
74539;BMP180;66042;51.090;-115.340;2023-02-25T02:55:24;85553.00;;;-13.00
74539;BMP180;66042;51.090;-115.340;2023-02-25T02:58:24;85559.20;;;-13.00
74539;BMP180;66042;51.090;-115.340;2023-02-25T03:01:01;85547.80;;;-12.90
74539;BMP180;66042;51.090;-115.340;2023-02-25T03:03:36;85561.00;;;-12.90
74539;BMP180;66042;51.090;-115.340;2023-02-25T03:06:19;85556.80;;;-12.90
74539;BMP180;66042;51.090;-115.340;2023-02-25T03:08:55;85552.80;;;-12.90
74539;BMP180;66042;51.090;-115.340;2023-02-25T03:11:22;85545.80;;;-12.90
74539;BMP180;66042;51.090;-115.340;2023-02-25T03:13:50;85561.40;;;-12.90
74539;BMP180;66042;51.090;-115.340;2023-02-25T03:16:46;85558.20;;;-12.80
74539;BMP180;66042;51.090;-115.340;2023-02-25T03:19:31;85546.20;;;-12.80
74539;BMP180;66042;51.090;-115.340;2023-02-25T03:22:14;85556.00;;;-12.80
74539;BMP180;66042;51.090;-115.340;2023-02-25T03:25:25;85567.80;;;-12.80
74539;BMP180;66042;51.090;-115.340;2023-02-25T03:28:20;85572.00;;;-12.80
74539;BMP180;66042;51.090;-115.340;2023-02-25T03:31:06;85573.20;;;-12.80
74539;BMP180;66042;51.090;-115.340;2023-02-25T03:33:44;85572.60;;;-12.80
74539;BMP180;66042;51.090;-115.340;2023-02-25T03:36:36;85565.80;;;-12.80
74539;BMP180;66042;51.090;-115.340;2023-02-25T03:39:20;85572.80;;;-12.80
74539;BMP180;66042;51.090;-115.340;2023-02-25T03:41:53;85574.40;;;-12.80
74539;BMP180;66042;51.090;-115.340;2023-02-25T03:44:27;85570.80;;;-12.70
74539;BMP180;66042;51.090;-115.340;2023-02-25T03:46:57;85568.80;;;-12.70
74539;BMP180;66042;51.090;-115.340;2023-02-25T03:49:46;85558.80;;;-12.70
74539;BMP180;66042;51.090;-115.340;2023-02-25T03:52:19;85566.00;;;-12.70
74539;BMP180;66042;51.090;-115.340;2023-02-25T03:54:56;85568.00;;;-12.70
74539;BMP180;66042;51.090;-115.340;2023-02-25T03:57:35;85558.00;;;-12.70
74539;BMP180;66042;51.090;-115.340;2023-02-25T04:00:28;85546.40;;;-12.70
74539;BMP180;66042;51.090;-115.340;2023-02-25T04:02:54;85559.00;;;-12.70
74539;BMP180;66042;51.090;-115.340;2023-02-25T04:05:24;85556.80;;;-12.60
74539;BMP180;66042;51.090;-115.340;2023-02-25T04:07:58;85565.20;;;-12.60
74539;BMP180;66042;51.090;-115.340;2023-02-25T04:10:26;85569.60;;;-12.60
74539;BMP180;66042;51.090;-115.340;2023-02-25T04:12:53;85575.00;;;-12.60
74539;BMP180;66042;51.090;-115.340;2023-02-25T04:15:22;85567.00;;;-12.54
74539;BMP180;66042;51.090;-115.340;2023-02-25T04:17:49;85559.80;;;-12.58
74539;BMP180;66042;51.090;-115.340;2023-02-25T04:20:16;85555.00;;;-12.60
74539;BMP180;66042;51.090;-115.340;2023-02-25T04:22:43;85557.60;;;-12.50
74539;BMP180;66042;51.090;-115.340;2023-02-25T04:25:10;85551.80;;;-12.50
74539;BMP180;66042;51.090;-115.340;2023-02-25T04:27:37;85551.00;;;-12.50
74539;BMP180;66042;51.090;-115.340;2023-02-25T04:30:08;85552.00;;;-12.50
74539;BMP180;66042;51.090;-115.340;2023-02-25T04:32:35;85551.40;;;-12.50
74539;BMP180;66042;51.090;-115.340;2023-02-25T04:35:02;85553.60;;;-12.50
74539;BMP180;66042;51.090;-115.340;2023-02-25T04:37:30;85557.60;;;-12.50
74539;BMP180;66042;51.090;-115.340;2023-02-25T04:39:57;85565.60;;;-12.40
74539;BMP180;66042;51.090;-115.340;2023-02-25T04:42:24;85576.00;;;-12.40
74539;BMP180;66042;51.090;-115.340;2023-02-25T04:44:51;85582.80;;;-12.38
74539;BMP180;66042;51.090;-115.340;2023-02-25T04:47:18;85595.40;;;-12.40
74539;BMP180;66042;51.090;-115.340;2023-02-25T04:49:45;85594.60;;;-12.40
74539;BMP180;66042;51.090;-115.340;2023-02-25T04:52:15;85595.20;;;-12.40
74539;BMP180;66042;51.090;-115.340;2023-02-25T04:54:42;85593.60;;;-12.40
74539;BMP180;66042;51.090;-115.340;2023-02-25T04:57:11;85594.40;;;-12.40
74539;BMP180;66042;51.090;-115.340;2023-02-25T04:59:38;85587.00;;;-12.40
74539;BMP180;66042;51.090;-115.340;2023-02-25T05:02:06;85595.00;;;-12.30
74539;BMP180;66042;51.090;-115.340;2023-02-25T05:04:35;85593.80;;;-12.28
74539;BMP180;66042;51.090;-115.340;2023-02-25T05:07:04;85586.60;;;-12.20
74539;BMP180;66042;51.090;-115.340;2023-02-25T05:09:32;85598.40;;;-12.20
74539;BMP180;66042;51.090;-115.340;2023-02-25T05:11:59;85598.40;;;-12.20
74539;BMP180;66042;51.090;-115.340;2023-02-25T05:14:27;85604.60;;;-12.20
74539;BMP180;66042;51.090;-115.340;2023-02-25T05:16:54;85606.00;;;-12.20
74539;BMP180;66042;51.090;-115.340;2023-02-25T05:19:23;85605.20;;;-12.20
74539;BMP180;66042;51.090;-115.340;2023-02-25T05:21:52;85622.00;;;-12.12
74539;BMP180;66042;51.090;-115.340;2023-02-25T05:24:20;85622.80;;;-12.12
74539;BMP180;66042;51.090;-115.340;2023-02-25T05:26:49;85615.80;;;-12.10
74539;BMP180;66042;51.090;-115.340;2023-02-25T05:29:17;85627.60;;;-12.10
74539;BMP180;66042;51.090;-115.340;2023-02-25T05:31:44;85620.20;;;-12.10
74539;BMP180;66042;51.090;-115.340;2023-02-25T05:34:11;85629.40;;;-12.10
74539;BMP180;66042;51.090;-115.340;2023-02-25T05:36:39;85629.60;;;-12.04
74539;BMP180;66042;51.090;-115.340;2023-02-25T05:39:06;85640.80;;;-12.10
74539;BMP180;66042;51.090;-115.340;2023-02-25T05:41:34;85635.80;;;-12.10
74539;BMP180;66042;51.090;-115.340;2023-02-25T05:44:01;85645.00;;;-12.10
74539;BMP180;66042;51.090;-115.340;2023-02-25T05:46:28;85650.40;;;-12.10
74539;BMP180;66042;51.090;-115.340;2023-02-25T05:48:55;85652.80;;;-12.20
74539;BMP180;66042;51.090;-115.340;2023-02-25T05:51:22;85657.40;;;-12.20
74539;BMP180;66042;51.090;-115.340;2023-02-25T05:53:51;85656.40;;;-12.20
74539;BMP180;66042;51.090;-115.340;2023-02-25T05:56:22;85658.40;;;-12.20
74539;BMP180;66042;51.090;-115.340;2023-02-25T05:58:50;85655.00;;;-12.20
74539;BMP180;66042;51.090;-115.340;2023-02-25T06:01:22;85655.00;;;-12.30
74539;BMP180;66042;51.090;-115.340;2023-02-25T06:03:50;85661.40;;;-12.30
74539;BMP180;66042;51.090;-115.340;2023-02-25T06:06:20;85658.20;;;-12.30
74539;BMP180;66042;51.090;-115.340;2023-02-25T06:08:50;85651.00;;;-12.30
74539;BMP180;66042;51.090;-115.340;2023-02-25T06:11:25;85649.40;;;-12.30
74539;BMP180;66042;51.090;-115.340;2023-02-25T06:13:54;85649.20;;;-12.40
74539;BMP180;66042;51.090;-115.340;2023-02-25T06:16:25;85648.00;;;-12.40
74539;BMP180;66042;51.090;-115.340;2023-02-25T06:18:59;85650.80;;;-12.40
74539;BMP180;66042;51.090;-115.340;2023-02-25T06:21:27;85653.00;;;-12.40
74539;BMP180;66042;51.090;-115.340;2023-02-25T06:23:54;85659.60;;;-12.48
74539;BMP180;66042;51.090;-115.340;2023-02-25T06:26:24;85646.60;;;-12.50
74539;BMP180;66042;51.090;-115.340;2023-02-25T06:28:52;85648.80;;;-12.52
74539;BMP180;66042;51.090;-115.340;2023-02-25T06:31:21;85649.80;;;-12.50
74539;BMP180;66042;51.090;-115.340;2023-02-25T06:33:48;85638.20;;;-12.60
74539;BMP180;66042;51.090;-115.340;2023-02-25T06:36:20;85632.80;;;-12.60
74539;BMP180;66042;51.090;-115.340;2023-02-25T06:38:47;85637.00;;;-12.66
74539;BMP180;66042;51.090;-115.340;2023-02-25T06:41:18;85631.60;;;-12.70
74539;BMP180;66042;51.090;-115.340;2023-02-25T06:43:46;85635.20;;;-12.70
74539;BMP180;66042;51.090;-115.340;2023-02-25T06:46:20;85626.40;;;-12.70
74539;BMP180;66042;51.090;-115.340;2023-02-25T06:48:47;85632.40;;;-12.80
74539;BMP180;66042;51.090;-115.340;2023-02-25T06:51:15;85620.40;;;-12.80
74539;BMP180;66042;51.090;-115.340;2023-02-25T06:53:44;85622.40;;;-12.80
74539;BMP180;66042;51.090;-115.340;2023-02-25T06:56:14;85624.60;;;-12.80
74539;BMP180;66042;51.090;-115.340;2023-02-25T06:58:42;85636.00;;;-12.80
74539;BMP180;66042;51.090;-115.340;2023-02-25T07:01:13;85640.20;;;-12.74
74539;BMP180;66042;51.090;-115.340;2023-02-25T07:03:41;85642.80;;;-12.72
74539;BMP180;66042;51.090;-115.340;2023-02-25T07:06:11;85647.80;;;-12.80
74539;BMP180;66042;51.090;-115.340;2023-02-25T07:08:41;85658.40;;;-12.80
74539;BMP180;66042;51.090;-115.340;2023-02-25T07:11:34;85650.60;;;-12.90
74539;BMP180;66042;51.090;-115.340;2023-02-25T07:14:04;85669.20;;;-12.90
74539;BMP180;66042;51.090;-115.340;2023-02-25T07:16:32;85670.80;;;-13.00
74539;BMP180;66042;51.090;-115.340;2023-02-25T07:19:00;85661.00;;;-13.10
74539;BMP180;66042;51.090;-115.340;2023-02-25T07:21:29;85663.40;;;-13.10
74539;BMP180;66042;51.090;-115.340;2023-02-25T07:23:57;85683.80;;;-13.16
74539;BMP180;66042;51.090;-115.340;2023-02-25T07:26:25;85685.00;;;-13.20
74539;BMP180;66042;51.090;-115.340;2023-02-25T07:28:56;85670.60;;;-13.20
74539;BMP180;66042;51.090;-115.340;2023-02-25T07:31:25;85676.60;;;-13.20
74539;BMP180;66042;51.090;-115.340;2023-02-25T07:33:54;85686.60;;;-13.20
74539;BMP180;66042;51.090;-115.340;2023-02-25T07:36:21;85683.60;;;-13.20
74539;BMP180;66042;51.090;-115.340;2023-02-25T07:38:48;85691.00;;;-13.28
74539;BMP180;66042;51.090;-115.340;2023-02-25T07:41:17;85689.40;;;-13.30
74539;BMP180;66042;51.090;-115.340;2023-02-25T07:43:45;85690.00;;;-13.30
74539;BMP180;66042;51.090;-115.340;2023-02-25T07:46:13;85695.60;;;-13.30
74539;BMP180;66042;51.090;-115.340;2023-02-25T07:48:40;85693.20;;;-13.30
74539;BMP180;66042;51.090;-115.340;2023-02-25T07:51:15;85698.60;;;-13.30
74539;BMP180;66042;51.090;-115.340;2023-02-25T07:53:45;85704.20;;;-13.30
74539;BMP180;66042;51.090;-115.340;2023-02-25T07:56:13;85706.40;;;-13.32
74539;BMP180;66042;51.090;-115.340;2023-02-25T07:58:40;85703.60;;;-13.32
74539;BMP180;66042;51.090;-115.340;2023-02-25T08:01:24;85699.60;;;-13.40
74539;BMP180;66042;51.090;-115.340;2023-02-25T08:03:54;85696.60;;;-13.30
74539;BMP180;66042;51.090;-115.340;2023-02-25T08:06:22;85701.00;;;-13.38
74539;BMP180;66042;51.090;-115.340;2023-02-25T08:08:49;85697.20;;;-13.40
74539;BMP180;66042;51.090;-115.340;2023-02-25T08:11:19;85706.20;;;-13.30
74539;BMP180;66042;51.090;-115.340;2023-02-25T08:13:46;85708.60;;;-13.26
74539;BMP180;66042;51.090;-115.340;2023-02-25T08:16:16;85697.00;;;-13.28
74539;BMP180;66042;51.090;-115.340;2023-02-25T08:18:44;85690.80;;;-13.30
74539;BMP180;66042;51.090;-115.340;2023-02-25T08:21:16;85684.20;;;-13.20
74539;BMP180;66042;51.090;-115.340;2023-02-25T08:23:44;85682.20;;;-13.20
74539;BMP180;66042;51.090;-115.340;2023-02-25T08:26:11;85687.20;;;-13.20
74539;BMP180;66042;51.090;-115.340;2023-02-25T08:28:38;85693.20;;;-13.20
74539;BMP180;66042;51.090;-115.340;2023-02-25T08:31:08;85691.20;;;-13.12
74539;BMP180;66042;51.090;-115.340;2023-02-25T08:33:40;85695.80;;;-13.10
74539;BMP180;66042;51.090;-115.340;2023-02-25T08:36:18;85691.20;;;-13.10
74539;BMP180;66042;51.090;-115.340;2023-02-25T08:38:46;85687.20;;;-13.10
74539;BMP180;66042;51.090;-115.340;2023-02-25T08:41:13;85692.00;;;-13.10
74539;BMP180;66042;51.090;-115.340;2023-02-25T08:43:40;85697.00;;;-13.00
74539;BMP180;66042;51.090;-115.340;2023-02-25T08:46:08;85690.40;;;-13.00
74539;BMP180;66042;51.090;-115.340;2023-02-25T08:48:36;85696.40;;;-13.00
74539;BMP180;66042;51.090;-115.340;2023-02-25T08:51:08;85696.20;;;-13.00
74539;BMP180;66042;51.090;-115.340;2023-02-25T08:53:38;85693.80;;;-13.00
74539;BMP180;66042;51.090;-115.340;2023-02-25T08:56:08;85693.40;;;-13.00
74539;BMP180;66042;51.090;-115.340;2023-02-25T08:58:36;85685.00;;;-13.00
74539;BMP180;66042;51.090;-115.340;2023-02-25T09:01:13;85688.80;;;-13.00
74539;BMP180;66042;51.090;-115.340;2023-02-25T09:03:42;85705.20;;;-13.00
74539;BMP180;66042;51.090;-115.340;2023-02-25T09:06:21;85699.80;;;-13.00
74539;BMP180;66042;51.090;-115.340;2023-02-25T09:08:51;85698.40;;;-13.00
74539;BMP180;66042;51.090;-115.340;2023-02-25T09:11:20;85705.00;;;-13.00
74539;BMP180;66042;51.090;-115.340;2023-02-25T09:13:47;85702.20;;;-13.00
74539;BMP180;66042;51.090;-115.340;2023-02-25T09:16:14;85690.20;;;-13.00
74539;BMP180;66042;51.090;-115.340;2023-02-25T09:18:47;85694.80;;;-13.00
74539;BMP180;66042;51.090;-115.340;2023-02-25T09:21:16;85698.60;;;-13.00
74539;BMP180;66042;51.090;-115.340;2023-02-25T09:23:43;85703.60;;;-13.10
74539;BMP180;66042;51.090;-115.340;2023-02-25T09:26:12;85696.60;;;-13.16
74539;BMP180;66042;51.090;-115.340;2023-02-25T09:28:40;85695.80;;;-13.10
74539;BMP180;66042;51.090;-115.340;2023-02-25T09:31:06;85687.60;;;-13.10
74539;BMP180;66042;51.090;-115.340;2023-02-25T09:33:35;85684.40;;;-13.10
74539;BMP180;66042;51.090;-115.340;2023-02-25T09:36:14;85703.00;;;-13.10
74539;BMP180;66042;51.090;-115.340;2023-02-25T09:38:44;85705.80;;;-13.14
74539;BMP180;66042;51.090;-115.340;2023-02-25T09:46:45;85703.60;;;-13.10
74539;BMP180;66042;51.090;-115.340;2023-02-25T09:49:41;85706.80;;;-13.10
74539;BMP180;66042;51.090;-115.340;2023-02-25T09:52:22;85703.00;;;-13.10
74539;BMP180;66042;51.090;-115.340;2023-02-25T09:55:28;85713.00;;;-13.00
74539;BMP180;66042;51.090;-115.340;2023-02-25T09:58:23;85705.40;;;-13.00
74539;BMP180;66042;51.090;-115.340;2023-02-25T10:04:16;85698.80;;;-13.00
74539;BMP180;66042;51.090;-115.340;2023-02-25T10:06:51;85696.00;;;-13.00
74539;BMP180;66042;51.090;-115.340;2023-02-25T10:10:16;85696.20;;;-13.10
74539;BMP180;66042;51.090;-115.340;2023-02-25T10:12:55;85693.20;;;-13.10
74539;BMP180;66042;51.090;-115.340;2023-02-25T10:16:20;85689.40;;;-13.00
74539;BMP180;66042;51.090;-115.340;2023-02-25T10:24:51;85706.00;;;-13.00
74539;BMP180;66042;51.090;-115.340;2023-02-25T10:27:44;85704.00;;;-13.00
74539;BMP180;66042;51.090;-115.340;2023-02-25T10:30:40;85697.60;;;-13.00
74539;BMP180;66042;51.090;-115.340;2023-02-25T10:33:22;85698.80;;;-12.90
74539;BMP180;66042;51.090;-115.340;2023-02-25T10:36:31;85696.00;;;-12.92
74539;BMP180;66042;51.090;-115.340;2023-02-25T10:39:00;85699.60;;;-12.90
74539;BMP180;66042;51.090;-115.340;2023-02-25T10:41:27;85697.60;;;-12.90
74539;BMP180;66042;51.090;-115.340;2023-02-25T10:43:56;85704.20;;;-12.90
74539;BMP180;66042;51.090;-115.340;2023-02-25T10:46:33;85702.20;;;-12.90
74539;BMP180;66042;51.090;-115.340;2023-02-25T10:49:21;85694.40;;;-12.90
74539;BMP180;66042;51.090;-115.340;2023-02-25T10:52:09;85690.60;;;-12.90
74539;BMP180;66042;51.090;-115.340;2023-02-25T10:54:50;85684.20;;;-12.90
74539;BMP180;66042;51.090;-115.340;2023-02-25T10:57:40;85672.40;;;-12.90
74539;BMP180;66042;51.090;-115.340;2023-02-25T11:00:30;85677.80;;;-12.98
74539;BMP180;66042;51.090;-115.340;2023-02-25T11:03:00;85675.20;;;-13.00
74539;BMP180;66042;51.090;-115.340;2023-02-25T11:05:41;85681.60;;;-13.00
74539;BMP180;66042;51.090;-115.340;2023-02-25T11:08:31;85671.40;;;-13.00
74539;BMP180;66042;51.090;-115.340;2023-02-25T11:13:41;85663.60;;;-13.00
74539;BMP180;66042;51.090;-115.340;2023-02-25T11:16:12;85666.00;;;-13.00
74539;BMP180;66042;51.090;-115.340;2023-02-25T11:18:40;85664.20;;;-13.00
74539;BMP180;66042;51.090;-115.340;2023-02-25T11:21:11;85665.60;;;-12.90
74539;BMP180;66042;51.090;-115.340;2023-02-25T11:23:46;85671.00;;;-12.90
74539;BMP180;66042;51.090;-115.340;2023-02-25T11:26:33;85667.20;;;-12.90
74539;BMP180;66042;51.090;-115.340;2023-02-25T11:29:26;85672.00;;;-12.90
74539;BMP180;66042;51.090;-115.340;2023-02-25T11:32:21;85669.20;;;-12.90
74539;BMP180;66042;51.090;-115.340;2023-02-25T11:34:58;85670.20;;;-12.90
74539;BMP180;66042;51.090;-115.340;2023-02-25T11:37:40;85667.20;;;-12.90
74539;BMP180;66042;51.090;-115.340;2023-02-25T11:40:31;85665.60;;;-12.90
74539;BMP180;66042;51.090;-115.340;2023-02-25T11:43:27;85661.20;;;-12.90
74539;BMP180;66042;51.090;-115.340;2023-02-25T11:46:11;85649.80;;;-12.90
74539;BMP180;66042;51.090;-115.340;2023-02-25T11:48:55;85652.60;;;-12.90
74539;BMP180;66042;51.090;-115.340;2023-02-25T11:51:50;85642.40;;;-12.90
74539;BMP180;66042;51.090;-115.340;2023-02-25T11:54:45;85642.80;;;-12.90
74539;BMP180;66042;51.090;-115.340;2023-02-25T12:18:27;85606.20;;;-13.00
74539;BMP180;66042;51.090;-115.340;2023-02-25T12:39:39;85615.60;;;-13.00
74539;BMP180;66042;51.090;-115.340;2023-02-25T13:01:49;85589.20;;;-12.90
74539;BMP180;66042;51.090;-115.340;2023-02-25T13:10:40;85572.20;;;-12.90
74539;BMP180;66042;51.090;-115.340;2023-02-25T13:29:14;85581.00;;;-12.90
74539;BMP180;66042;51.090;-115.340;2023-02-25T13:47:11;85596.60;;;-13.10
74539;BMP180;66042;51.090;-115.340;2023-02-25T13:56:20;85591.20;;;-13.00
74539;BMP180;66042;51.090;-115.340;2023-02-25T14:14:05;85595.00;;;-13.00
74539;BMP180;66042;51.090;-115.340;2023-02-25T14:45:13;85544.00;;;-12.70
74539;BMP180;66042;51.090;-115.340;2023-02-25T14:47:38;85535.60;;;-12.60
74539;BMP180;66042;51.090;-115.340;2023-02-25T14:51:13;85542.00;;;-12.58
74539;BMP180;66042;51.090;-115.340;2023-02-25T15:03:29;85538.80;;;-12.30
74539;BMP180;66042;51.090;-115.340;2023-02-25T15:10:03;85558.00;;;-12.10
74539;BMP180;66042;51.090;-115.340;2023-02-25T15:13:35;85548.40;;;-12.06
74539;BMP180;66042;51.090;-115.340;2023-02-25T15:22:23;85556.00;;;-12.00
74539;BMP180;66042;51.090;-115.340;2023-02-25T15:24:54;85557.00;;;-12.00
74539;BMP180;66042;51.090;-115.340;2023-02-25T15:27:49;85560.00;;;-12.00
74539;BMP180;66042;51.090;-115.340;2023-02-25T15:30:25;85552.40;;;-12.00
74539;BMP180;66042;51.090;-115.340;2023-02-25T15:36:18;85553.80;;;-12.00
74539;BMP180;66042;51.090;-115.340;2023-02-25T15:49:25;85550.60;;;-12.00
74539;BMP180;66042;51.090;-115.340;2023-02-25T15:51:55;85551.60;;;-12.00
74539;BMP180;66042;51.090;-115.340;2023-02-25T15:59:57;85553.60;;;-11.80
74539;BMP180;66042;51.090;-115.340;2023-02-25T16:05:14;85542.60;;;-11.60
74539;BMP180;66042;51.090;-115.340;2023-02-25T16:07:48;85546.80;;;-11.44
74539;BMP180;66042;51.090;-115.340;2023-02-25T16:10:46;85549.60;;;-11.30
74539;BMP180;66042;51.090;-115.340;2023-02-25T16:13:28;85536.60;;;-11.20
74539;BMP180;66042;51.090;-115.340;2023-02-25T16:15:57;85534.80;;;-11.06
74539;BMP180;66042;51.090;-115.340;2023-02-25T16:18:49;85534.80;;;-10.90
74539;BMP180;66042;51.090;-115.340;2023-02-25T16:21:24;85533.40;;;-10.80
74539;BMP180;66042;51.090;-115.340;2023-02-25T16:23:53;85530.40;;;-10.70
74539;BMP180;66042;51.090;-115.340;2023-02-25T16:32:15;85541.60;;;-10.50
74539;BMP180;66042;51.090;-115.340;2023-02-25T16:40:53;85532.60;;;-10.10
74539;BMP180;66042;51.090;-115.340;2023-02-25T16:43:34;85530.60;;;-10.00
74539;BMP180;66042;51.090;-115.340;2023-02-25T16:46:50;85531.80;;;-9.90
74539;BMP180;66042;51.090;-115.340;2023-02-25T16:48:58;85525.00;;;-9.90
74539;BMP180;66042;51.090;-115.340;2023-02-25T16:51:42;85528.40;;;-9.82
74539;BMP180;66042;51.090;-115.340;2023-02-25T16:54:32;85524.40;;;-9.70
74539;BMP180;66042;51.090;-115.340;2023-02-25T16:57:05;85525.20;;;-9.60
74539;BMP180;66042;51.090;-115.340;2023-02-25T16:59:37;85526.60;;;-9.50
74539;BMP180;66042;51.090;-115.340;2023-02-25T17:04:50;85514.00;;;-9.30
74539;BMP180;66042;51.090;-115.340;2023-02-25T17:07:23;85516.20;;;-9.20
74539;BMP180;66042;51.090;-115.340;2023-02-25T17:09:59;85514.20;;;-9.00
74539;BMP180;66042;51.090;-115.340;2023-02-25T17:12:43;85514.40;;;-8.82
74539;BMP180;66042;51.090;-115.340;2023-02-25T17:15:26;85511.60;;;-8.70
74539;BMP180;66042;51.090;-115.340;2023-02-25T17:18:27;85514.60;;;-8.60
74539;BMP180;66042;51.090;-115.340;2023-02-25T17:21:40;85519.20;;;-8.48
74539;BMP180;66042;51.090;-115.340;2023-02-25T17:24:02;85518.20;;;-8.36
74539;BMP180;66042;51.090;-115.340;2023-02-25T17:26:31;85514.00;;;-8.40
74539;BMP180;66042;51.090;-115.340;2023-02-25T17:29:01;85510.20;;;-8.30
74539;BMP180;66042;51.090;-115.340;2023-02-25T17:31:43;85510.20;;;-8.20
74539;BMP180;66042;51.090;-115.340;2023-02-25T17:34:39;85506.00;;;-8.06
74539;BMP180;66042;51.090;-115.340;2023-02-25T17:37:06;85500.00;;;-7.82
74539;BMP180;66042;51.090;-115.340;2023-02-25T17:39:35;85493.60;;;-7.54
74539;BMP180;66042;51.090;-115.340;2023-02-25T17:42:32;85490.80;;;-7.26
74539;BMP180;66042;51.090;-115.340;2023-02-25T17:45:04;85486.20;;;-7.10
74539;BMP180;66042;51.090;-115.340;2023-02-25T17:47:35;85493.00;;;-7.00
74539;BMP180;66042;51.090;-115.340;2023-02-25T17:50:29;85490.20;;;-6.90
74539;BMP180;66042;51.090;-115.340;2023-02-25T17:52:57;85484.20;;;-6.72
74539;BMP180;66042;51.090;-115.340;2023-02-25T17:55:36;85487.60;;;-6.60